Time;durP1;ratioP1;P1;durP2;ratioP2;P2;SDS_P1;SDS_P2;PMS_P1;PMS_P2;Temp;Humidity;BMP_temperature;BMP_pressure;BME280_temperature;BME280_humidity;BME280_pressure;Samples;Min_cycle;Max_cycle;Signal;HPM_P1;HPM_P2
2023/04/06 00:01:41;;;;;;;14.98;7.88;;;0.40;99.90;;;;;;5104169;28;20024;-77
2023/04/06 00:04:07;;;;;;;12.20;7.10;;;0.40;99.90;;;;;;5105478;28;20036;-77
2023/04/06 00:06:33;;;;;;;12.57;7.20;;;0.40;99.90;;;;;;5094106;28;20366;-79
2023/04/06 00:08:59;;;;;;;13.45;7.90;;;0.40;99.90;;;;;;5111593;28;20031;-78
2023/04/06 00:11:25;;;;;;;13.70;7.13;;;0.50;99.90;;;;;;5113299;28;20031;-77
2023/04/06 00:13:51;;;;;;;12.52;7.75;;;0.50;99.90;;;;;;5104534;28;20085;-78
2023/04/06 00:16:17;;;;;;;12.45;6.80;;;0.50;99.90;;;;;;5113490;28;20055;-79
2023/04/06 00:18:43;;;;;;;10.93;6.35;;;0.60;99.90;;;;;;5113630;28;20128;-77
2023/04/06 00:21:12;;;;;;;11.88;7.20;;;0.60;99.90;;;;;;5101307;28;20020;-76
2023/04/06 00:23:38;;;;;;;11.93;6.10;;;0.50;99.90;;;;;;5093492;28;20101;-76
2023/04/06 00:26:04;;;;;;;11.65;6.65;;;0.50;99.90;;;;;;5075631;28;20270;-75
2023/04/06 00:28:29;;;;;;;12.65;7.22;;;0.40;99.90;;;;;;5094975;28;20435;-75
2023/04/06 00:30:55;;;;;;;13.57;7.55;;;0.30;99.90;;;;;;5097083;28;20384;-77
2023/04/06 00:33:24;;;;;;;11.68;7.90;;;0.40;99.90;;;;;;5096623;28;20027;-75
2023/04/06 00:35:50;;;;;;;10.50;6.75;;;0.30;99.90;;;;;;5111803;28;20143;-78
2023/04/06 00:38:16;;;;;;;10.20;6.97;;;0.20;99.90;;;;;;5112851;28;20559;-78
2023/04/06 00:40:46;;;;;;;12.18;7.15;;;0.20;99.90;;;;;;5102088;28;20104;-77
2023/04/06 00:43:12;;;;;;;13.30;7.88;;;0.10;99.90;;;;;;5094445;28;20100;-78
2023/04/06 00:45:39;;;;;;;11.60;7.25;;;0.10;99.90;;;;;;5107731;28;20111;-78
2023/04/06 00:48:05;;;;;;;14.88;8.45;;;0.10;99.90;;;;;;5112988;28;20038;-78
2023/04/06 00:50:31;;;;;;;14.52;8.75;;;0.10;99.90;;;;;;5103807;28;20020;-78
2023/04/06 00:52:57;;;;;;;16.25;8.70;;;0.10;99.90;;;;;;5100282;28;20175;-78
2023/04/06 00:55:22;;;;;;;13.02;8.10;;;0.10;99.90;;;;;;5097509;28;20370;-74
2023/04/06 00:57:50;;;;;;;12.07;7.38;;;0.10;99.90;;;;;;5093103;28;20488;-78
2023/04/06 01:00:16;;;;;;;14.35;8.82;;;0.20;99.90;;;;;;5100227;28;20027;-78
2023/04/06 01:02:42;;;;;;;13.00;8.23;;;0.10;99.90;;;;;;5105112;28;20051;-78
2023/04/06 01:05:08;;;;;;;14.07;8.45;;;0.10;99.90;;;;;;5104703;28;20380;-78
2023/04/06 01:07:34;;;;;;;14.13;8.10;;;0.10;99.90;;;;;;5111907;28;20024;-77
2023/04/06 01:09:59;;;;;;;15.55;8.30;;;0.10;99.90;;;;;;5113530;28;20152;-76
2023/04/06 01:12:25;;;;;;;16.20;9.13;;;0.10;99.90;;;;;;5097202;28;20032;-74
2023/04/06 01:14:51;;;;;;;13.52;8.15;;;0.10;99.90;;;;;;5103895;28;20031;-78
2023/04/06 01:17:16;;;;;;;13.88;8.23;;;0.00;99.90;;;;;;5112603;28;20030;-78
2023/04/06 01:19:42;;;;;;;14.82;9.00;;;-0.10;99.90;;;;;;5111090;28;20080;-78
2023/04/06 01:22:09;;;;;;;15.43;9.25;;;;;;;;;;5106921;28;20485;-78
2023/04/06 01:24:36;;;;;;;18.17;10.18;;;;;;;;;;5100813;28;20035;-78
2023/04/06 01:27:03;;;;;;;19.05;10.32;;;;;;;;;;5104895;28;20072;-78
2023/04/06 01:29:30;;;;;;;12.43;8.55;;;;;;;;;;5110761;28;20039;-78
2023/04/06 01:31:57;;;;;;;18.27;9.10;;;;;;;;;;5103444;28;20024;-77
2023/04/06 01:34:24;;;;;;;15.68;8.70;;;;;;;;;;5112683;28;20023;-73
2023/04/06 01:36:51;;;;;;;15.23;8.63;;;;;;;;;;5112143;28;20030;-77
2023/04/06 01:39:18;;;;;;;13.20;9.02;;;;;;;;;;5109705;28;20036;-76
2023/04/06 01:41:47;;;;;;;16.17;9.50;;;;;;;;;;5091794;28;20281;-78
2023/04/06 01:44:20;;;;;;;15.38;9.00;;;;;;;;;;5093826;28;20039;-78
2023/04/06 01:46:48;;;;;;;13.90;8.95;;;;;;;;;;5091125;28;20089;-77
2023/04/06 01:49:14;;;;;;;13.65;9.07;;;;;;;;;;5097177;28;20080;-75
2023/04/06 01:51:40;;;;;;;16.75;9.32;;;;;;;;;;5100290;28;20047;-76
2023/04/06 01:54:06;;;;;;;16.40;9.48;;;;;;;;;;5097951;28;20027;-77
2023/04/06 01:56:32;;;;;;;14.70;9.60;;;;;;;;;;5093325;28;20069;-78
2023/04/06 01:58:58;;;;;;;15.35;8.65;;;;;;;;;;5095961;28;20043;-77
2023/04/06 02:01:24;;;;;;;15.35;9.27;;;;;;;;;;5111265;28;20476;-73
2023/04/06 02:03:50;;;;;;;12.98;8.65;;;;;;;;;;5112254;28;20034;-78
2023/04/06 02:06:16;;;;;;;14.30;9.18;;;;;;;;;;5086595;28;20035;-78
2023/04/06 02:08:42;;;;;;;14.35;8.85;;;;;;;;;;5098656;28;20106;-78
2023/04/06 02:11:08;;;;;;;17.55;9.25;;;;;;;;;;5111580;28;20102;-78
2023/04/06 02:13:34;;;;;;;15.80;9.88;;;;;;;;;;5100531;28;20102;-77
2023/04/06 02:16:02;;;;;;;14.73;9.10;;;;;;;;;;5110654;28;20043;-76
2023/04/06 02:18:35;;;;;;;13.65;9.00;;;;;;;;;;5100810;28;20032;-77
2023/04/06 02:21:01;;;;;;;15.75;10.27;;;-0.40;99.90;;;;;;5091671;28;20020;-78
2023/04/06 02:23:26;;;;;;;17.92;10.60;;;-0.50;99.90;;;;;;5099002;28;20099;-77
2023/04/06 02:25:52;;;;;;;17.27;9.65;;;-0.50;99.90;;;;;;5099655;28;20051;-78
2023/04/06 02:28:18;;;;;;;18.00;9.27;;;-0.50;99.90;;;;;;5107089;28;20098;-78
2023/04/06 02:30:43;;;;;;;18.73;10.02;;;-0.60;99.90;;;;;;5109728;28;20404;-77
2023/04/06 02:33:09;;;;;;;19.15;9.93;;;-0.70;99.90;;;;;;5111738;28;20446;-77
2023/04/06 02:35:35;;;;;;;17.75;10.10;;;-0.70;99.90;;;;;;5111032;28;20377;-78
2023/04/06 02:38:00;;;;;;;18.42;9.25;;;-0.70;99.90;;;;;;5101607;28;20103;-78
2023/04/06 02:40:26;;;;;;;15.75;9.63;;;-0.80;99.90;;;;;;5090721;28;20027;-74
2023/04/06 02:42:52;;;;;;;16.60;9.85;;;-0.80;99.90;;;;;;5097906;28;20039;-76
2023/04/06 02:45:17;;;;;;;15.30;9.88;;;-0.80;99.90;;;;;;5109855;28;20043;-78
2023/04/06 02:47:43;;;;;;;22.45;11.52;;;-0.90;99.90;;;;;;5110260;28;20023;-78
2023/04/06 02:50:09;;;;;;;15.52;10.65;;;-0.90;99.90;;;;;;5110825;28;20401;-77
2023/04/06 02:52:35;;;;;;;18.20;10.98;;;-0.90;99.90;;;;;;5098255;28;20039;-78
2023/04/06 02:55:00;;;;;;;15.23;10.27;;;-0.90;99.90;;;;;;5091537;28;20035;-78
2023/04/06 02:57:26;;;;;;;20.35;9.98;;;-0.90;99.90;;;;;;5090459;28;20028;-77
2023/04/06 02:59:52;;;;;;;14.45;9.13;;;-0.90;99.90;;;;;;5093145;28;20153;-78
2023/04/06 03:02:17;;;;;;;15.77;9.52;;;-1.00;99.90;;;;;;5108360;28;20142;-76
2023/04/06 03:04:43;;;;;;;18.48;9.63;;;-1.00;99.90;;;;;;5110687;28;20605;-77
2023/04/06 03:07:09;;;;;;;16.95;9.93;;;-1.00;99.90;;;;;;5098613;28;20422;-77
2023/04/06 03:09:37;;;;;;;17.70;10.90;;;-1.10;99.90;;;;;;5097828;28;20081;-77
2023/04/06 03:12:03;;;;;;;17.50;9.70;;;-1.20;99.90;;;;;;5092180;28;20363;-76
2023/04/06 03:14:28;;;;;;;18.20;10.02;;;-1.20;99.90;;;;;;5095022;28;20112;-77
2023/04/06 03:16:54;;;;;;;17.75;10.57;;;-1.30;99.90;;;;;;5098587;28;20435;-76
2023/04/06 03:19:20;;;;;;;21.00;10.32;;;-1.20;99.90;;;;;;5111210;28;20349;-76
2023/04/06 03:21:45;;;;;;;18.05;10.00;;;-1.20;99.90;;;;;;5100894;28;20447;-77
2023/04/06 03:24:13;;;;;;;17.20;10.52;;;-1.30;99.90;;;;;;5111515;28;20100;-75
2023/04/06 03:26:39;;;;;;;16.48;10.18;;;-1.20;99.90;;;;;;5091079;28;20128;-76
2023/04/06 03:29:05;;;;;;;16.02;9.30;;;-1.30;99.90;;;;;;5111952;28;20099;-77
2023/04/06 03:31:30;;;;;;;20.77;10.52;;;-1.30;99.90;;;;;;5095249;28;20034;-77
2023/04/06 03:33:56;;;;;;;18.20;10.60;;;-1.30;99.90;;;;;;5091532;28;20037;-76
2023/04/06 03:36:22;;;;;;;15.88;10.45;;;-1.30;99.90;;;;;;5097249;28;20123;-74
2023/04/06 03:38:47;;;;;;;17.50;10.73;;;-1.40;99.90;;;;;;5091424;28;20028;-77
2023/04/06 03:41:13;;;;;;;20.25;11.80;;;-1.40;99.90;;;;;;5091657;28;20469;-78
2023/04/06 03:43:38;;;;;;;19.10;10.85;;;-1.40;99.90;;;;;;5077581;28;20085;-76
2023/04/06 03:46:04;;;;;;;18.15;10.35;;;-1.30;99.90;;;;;;5096235;28;20122;-77
2023/04/06 03:48:30;;;;;;;18.48;10.18;;;-1.20;99.90;;;;;;5114683;28;20055;-78
2023/04/06 03:50:56;;;;;;;18.65;10.95;;;-1.10;99.90;;;;;;5122130;28;20031;-78
2023/04/06 03:53:21;;;;;;;18.52;10.98;;;-1.10;99.90;;;;;;5119833;28;20028;-73
2023/04/06 03:55:47;;;;;;;18.30;10.00;;;-1.10;99.90;;;;;;5122205;28;20059;-76
2023/04/06 03:58:12;;;;;;;15.93;10.52;;;-1.10;99.90;;;;;;5130519;28;20028;-77
2023/04/06 04:00:38;;;;;;;16.58;9.85;;;-1.10;99.90;;;;;;5126759;28;20095;-78
2023/04/06 04:03:04;;;;;;;17.58;10.15;;;-1.30;99.90;;;;;;5109702;28;20039;-76
2023/04/06 04:05:29;;;;;;;16.13;10.57;;;-1.30;99.90;;;;;;5112712;28;20032;-77
2023/04/06 04:07:55;;;;;;;17.08;11.10;;;-1.40;99.90;;;;;;5114704;28;20039;-77
2023/04/06 04:10:21;;;;;;;14.68;9.85;;;-1.40;99.90;;;;;;5108683;28;20047;-75
2023/04/06 04:12:46;;;;;;;17.00;10.65;;;-1.50;99.90;;;;;;5094404;28;20024;-76
2023/04/06 04:15:12;;;;;;;18.50;11.25;;;-1.50;99.90;;;;;;5094135;28;20066;-77
2023/04/06 04:17:38;;;;;;;16.45;11.07;;;-1.50;99.90;;;;;;5093754;28;20093;-78
2023/04/06 04:20:04;;;;;;;16.10;10.65;;;-1.50;99.90;;;;;;5114684;28;20038;-78
2023/04/06 04:22:29;;;;;;;19.50;10.55;;;-1.50;99.90;;;;;;5105953;28;20032;-82
2023/04/06 04:24:55;;;;;;;19.63;10.40;;;-1.50;99.90;;;;;;5094636;28;20432;-78
2023/04/06 04:27:21;;;;;;;18.90;11.23;;;-1.60;99.90;;;;;;5097992;28;20461;-79
2023/04/06 04:29:47;;;;;;;18.13;10.80;;;-1.60;99.90;;;;;;5093985;28;20111;-79
2023/04/06 04:32:12;;;;;;;19.50;11.45;;;-1.60;99.90;;;;;;5095306;28;20441;-81
2023/04/06 04:34:41;;;;;;;17.88;10.63;;;-1.60;99.90;;;;;;5113780;28;20036;-79
2023/04/06 04:37:06;;;;;;;16.83;10.43;;;-1.60;99.90;;;;;;5113771;28;20028;-78
2023/04/06 04:39:32;;;;;;;19.90;11.43;;;-1.60;99.90;;;;;;5102160;28;20051;-76
2023/04/06 04:41:58;;;;;;;23.13;11.48;;;-1.60;99.90;;;;;;5091944;28;20059;-77
2023/04/06 04:44:23;;;;;;;17.20;11.25;;;-1.60;99.90;;;;;;5100630;28;20036;-75
2023/04/06 04:46:49;;;;;;;16.10;10.75;;;-1.60;99.90;;;;;;5095823;28;20032;-79
2023/04/06 04:49:15;;;;;;;22.05;11.80;;;-1.60;99.90;;;;;;5096351;28;20047;-79
2023/04/06 04:51:41;;;;;;;19.90;11.45;;;-1.60;99.90;;;;;;5112137;28;20027;-79
2023/04/06 04:54:06;;;;;;;19.38;11.23;;;-1.60;99.90;;;;;;5104724;28;20107;-80
2023/04/06 04:56:32;;;;;;;18.13;12.05;;;-1.50;99.90;;;;;;5100607;28;20357;-77
2023/04/06 04:58:58;;;;;;;19.20;11.57;;;-1.60;99.90;;;;;;5111677;28;20024;-79
2023/04/06 05:01:23;;;;;;;18.08;10.80;;;-1.50;99.90;;;;;;5105916;28;20028;-76
2023/04/06 05:03:49;;;;;;;19.67;11.07;;;-1.50;99.90;;;;;;5112645;28;20484;-79
2023/04/06 05:06:15;;;;;;;19.20;10.90;;;-1.50;99.90;;;;;;5113043;28;20122;-79
2023/04/06 05:08:41;;;;;;;15.23;10.30;;;-1.50;99.90;;;;;;5112667;28;20072;-78
2023/04/06 05:11:07;;;;;;;18.55;11.55;;;-1.40;99.90;;;;;;5108156;28;20020;-78
2023/04/06 05:13:32;;;;;;;16.42;10.73;;;-1.40;99.90;;;;;;5095508;28;20647;-77
2023/04/06 05:15:58;;;;;;;18.35;9.93;;;-1.40;99.90;;;;;;5100673;28;20035;-78
2023/04/06 05:18:24;;;;;;;18.50;10.77;;;-1.50;99.90;;;;;;5103193;28;20075;-75
2023/04/06 05:20:51;;;;;;;19.40;11.68;;;-1.40;99.90;;;;;;5112502;28;20510;-77
2023/04/06 05:23:17;;;;;;;18.45;10.65;;;-1.30;99.90;;;;;;5109850;28;20024;-78
2023/04/06 05:25:42;;;;;;;18.27;10.82;;;-1.30;99.90;;;;;;5097898;28;20024;-83
2023/04/06 05:28:08;;;;;;;19.30;11.10;;;-1.30;99.90;;;;;;5102803;28;20095;-85
2023/04/06 05:30:35;;;;;;;22.42;11.80;;;-1.20;99.90;;;;;;5108259;28;20028;-84
2023/04/06 05:33:01;;;;;;;22.35;10.57;;;-1.10;99.90;;;;;;5109489;28;20496;-82
2023/04/06 05:35:27;;;;;;;20.98;10.50;;;-1.00;99.90;;;;;;5110643;28;20042;-80
2023/04/06 05:37:52;;;;;;;21.25;10.20;;;-0.90;99.90;;;;;;5102275;28;20110;-86
2023/04/06 05:40:18;;;;;;;19.08;10.27;;;-0.70;99.90;;;;;;5110280;28;20023;-83
2023/04/06 05:42:43;;;;;;;15.07;9.23;;;-0.50;99.90;;;;;;5103220;28;20024;-81
2023/04/06 05:45:11;;;;;;;16.05;9.43;;;-0.50;99.90;;;;;;5093466;28;20389;-84
2023/04/06 05:47:37;;;;;;;17.33;9.75;;;-0.40;99.90;;;;;;5111575;28;20031;-79
2023/04/06 05:50:03;;;;;;;16.73;9.73;;;-0.30;99.90;;;;;;5107840;28;20464;-78
2023/04/06 05:52:28;;;;;;;15.15;9.77;;;-0.30;99.90;;;;;;5106948;28;20028;-74
2023/04/06 05:54:54;;;;;;;18.02;10.00;;;-0.20;99.90;;;;;;5100760;28;20913;-79
2023/04/06 05:57:20;;;;;;;22.05;11.43;;;-0.20;99.90;;;;;;5104280;28;20442;-80
2023/04/06 05:59:45;;;;;;;28.63;11.80;;;-0.10;99.90;;;;;;5108849;28;20054;-80
2023/04/06 06:02:11;;;;;;;30.17;13.02;;;0.00;99.90;;;;;;5092078;28;20522;-79
2023/04/06 06:04:37;;;;;;;24.33;12.40;;;0.10;99.90;;;;;;5090759;28;20024;-80
2023/04/06 06:07:03;;;;;;;22.80;11.82;;;0.20;99.90;;;;;;5091666;28;20381;-80
2023/04/06 06:09:29;;;;;;;20.35;11.27;;;0.30;99.90;;;;;;5092017;28;20389;-80
2023/04/06 06:11:55;;;;;;;17.92;10.48;;;0.40;99.90;;;;;;5096770;28;20080;-79
2023/04/06 06:14:21;;;;;;;19.52;10.90;;;0.50;99.90;;;;;;5107166;28;20026;-80
2023/04/06 06:16:47;;;;;;;18.65;10.68;;;0.60;99.90;;;;;;5099079;28;20159;-80
2023/04/06 06:19:13;;;;;;;16.70;10.45;;;0.60;99.90;;;;;;5092264;28;20020;-80
2023/04/06 06:21:39;;;;;;;18.60;10.35;;;0.80;99.90;;;;;;5090668;28;20028;-79
2023/04/06 06:24:05;;;;;;;18.17;9.85;;;0.90;99.90;;;;;;5094446;28;20031;-80
2023/04/06 06:26:31;;;;;;;15.38;10.10;;;1.00;99.90;;;;;;5110724;28;20027;-78
2023/04/06 06:28:56;;;;;;;13.65;9.68;;;1.00;99.90;;;;;;5112387;28;20081;-80
2023/04/06 06:31:22;;;;;;;16.15;10.45;;;1.10;99.90;;;;;;5111731;28;20060;-75
2023/04/06 06:33:51;;;;;;;19.65;11.40;;;1.20;99.90;;;;;;5107436;28;20462;-79
2023/04/06 06:36:19;;;;;;;20.95;11.32;;;1.30;99.90;;;;;;5091079;28;20063;-78
2023/04/06 06:38:45;;;;;;;15.95;10.75;;;1.40;99.90;;;;;;5090855;28;20035;-79
2023/04/06 06:41:11;;;;;;;22.10;11.95;;;1.50;99.90;;;;;;5098018;28;20103;-78
2023/04/06 06:43:39;;;;;;;17.35;11.35;;;;;;;;;;5091019;28;20449;-80
2023/04/06 06:46:05;;;;;;;17.48;11.43;;;;;;;;;;5097785;28;20103;-80
2023/04/06 06:48:32;;;;;;;22.23;12.20;;;;;;;;;;5110649;28;20054;-79
2023/04/06 06:50:58;;;;;;;23.70;11.18;;;;;;;;;;5110889;28;20035;-79
2023/04/06 06:53:24;;;;;;;16.13;10.23;;;;;;;;;;5112118;28;20032;-74
2023/04/06 06:55:50;;;;;;;19.02;11.13;;;;;;;;;;5111564;28;20031;-80
2023/04/06 06:58:20;;;;;;;17.75;10.52;;;;;;;;;;5112048;28;20024;-79
2023/04/06 07:00:46;;;;;;;14.65;9.68;;;;;;;;;;5110528;28;20032;-80
2023/04/06 07:03:12;;;;;;;20.08;12.20;;;;;;;;;;5112462;28;20016;-80
2023/04/06 07:05:38;;;;;;;20.13;11.68;;;;;;;;;;5112050;28;20058;-79
2023/04/06 07:08:05;;;;;;;20.75;11.18;;;;;;;;;;5111931;28;20038;-80
2023/04/06 07:10:31;;;;;;;20.27;12.13;;;;;;;;;;5112199;28;20020;-80
2023/04/06 07:12:57;;;;;;;21.38;12.85;;;;;;;;;;5107380;28;20053;-79
2023/04/06 07:15:23;;;;;;;19.67;11.77;;;;;;;;;;5112241;28;20035;-76
2023/04/06 07:17:49;;;;;;;25.00;12.00;;;3.50;99.90;;;;;;5104704;28;20030;-76
2023/04/06 07:20:15;;;;;;;23.25;13.25;;;3.60;99.90;;;;;;5103736;28;20027;-79
2023/04/06 07:22:48;;;;;;;19.30;11.80;;;3.70;99.90;;;;;;5110907;28;20031;-79
2023/04/06 07:25:13;;;;;;;19.20;11.95;;;3.80;99.90;;;;;;5116160;28;20059;-80
2023/04/06 07:27:39;;;;;;;21.02;12.07;;;4.00;99.90;;;;;;5115198;28;20721;-82
2023/04/06 07:30:06;;;;;;;21.77;12.75;;;4.00;99.90;;;;;;5112523;28;20078;-80
2023/04/06 07:32:31;;;;;;;21.05;11.70;;;4.20;99.90;;;;;;5114134;28;20036;-78
2023/04/06 07:34:58;;;;;;;17.65;11.50;;;4.30;99.90;;;;;;5116023;28;20135;-80
2023/04/06 07:37:23;;;;;;;21.40;11.70;;;4.40;99.90;;;;;;5115138;28;20089;-74
2023/04/06 07:39:49;;;;;;;20.42;11.75;;;4.60;99.90;;;;;;5116825;28;20019;-80
2023/04/06 07:42:14;;;;;;;20.35;11.88;;;4.70;99.90;;;;;;5107748;28;20099;-77
2023/04/06 07:44:40;;;;;;;18.85;12.00;;;4.80;99.90;;;;;;5115168;28;20778;-80
2023/04/06 07:47:06;;;;;;;17.38;11.65;;;4.90;99.90;;;;;;5116451;28;20023;-79
2023/04/06 07:49:32;;;;;;;19.52;11.90;;;5.00;99.90;;;;;;5116031;28;20054;-80
2023/04/06 07:51:58;;;;;;;23.42;12.20;;;5.00;99.90;;;;;;5117440;28;20031;-80
2023/04/06 07:54:24;;;;;;;18.95;12.38;;;5.30;99.90;;;;;;5121540;28;20189;-73
2023/04/06 07:56:49;;;;;;;21.10;11.73;;;5.30;99.90;;;;;;5118769;28;20028;-79
2023/04/06 07:59:15;;;;;;;18.60;11.98;;;5.40;99.90;;;;;;5118983;28;20146;-79
2023/04/06 08:01:41;;;;;;;21.13;12.57;;;5.60;99.90;;;;;;5119629;28;20079;-80
2023/04/06 08:04:07;;;;;;;18.75;11.63;;;5.70;99.90;;;;;;5118546;28;20028;-79
2023/04/06 08:06:33;;;;;;;22.52;12.18;;;5.80;99.90;;;;;;5116983;28;20039;-80
2023/04/06 08:08:58;;;;;;;20.52;11.93;;;5.90;99.90;;;;;;5115392;28;20034;-79
2023/04/06 08:11:24;;;;;;;20.15;12.23;;;6.00;99.90;;;;;;5114171;28;20357;-74
2023/04/06 08:13:50;;;;;;;17.17;10.90;;;6.10;99.90;;;;;;5110052;28;20024;-80
2023/04/06 08:16:15;;;;;;;18.05;11.73;;;6.20;99.90;;;;;;5113261;28;20034;-79
2023/04/06 08:18:41;;;;;;;18.25;11.82;;;6.40;99.90;;;;;;5114015;28;20034;-79
2023/04/06 08:21:07;;;;;;;18.33;11.48;;;6.40;99.90;;;;;;5114057;28;20081;-79
2023/04/06 08:23:33;;;;;;;19.23;12.13;;;;;;;;;;5113667;28;20047;-79
2023/04/06 08:25:59;;;;;;;21.88;11.77;;;;;;;;;;5114086;28;20440;-79
2023/04/06 08:28:25;;;;;;;24.58;12.38;;;;;;;;;;5112832;28;20027;-73
2023/04/06 08:30:51;;;;;;;21.00;11.75;;;;;;;;;;5114137;28;20461;-80
2023/04/06 08:33:17;;;;;;;23.05;11.95;;;;;;;;;;5102310;28;20038;-79
2023/04/06 08:35:43;;;;;;;25.95;12.70;;;;;;;;;;5100292;28;20036;-80
2023/04/06 08:38:09;;;;;;;19.33;12.35;;;;;;;;;;5094292;28;20051;-78
2023/04/06 08:40:38;;;;;;;21.35;13.00;;;;;;;;;;5099590;28;20036;-80
2023/04/06 08:43:08;;;;;;;24.45;12.02;;;;;;;;;;5092476;28;20019;-80
2023/04/06 08:45:34;;;;;;;21.77;11.95;;;;;;;;;;5089736;28;20328;-78
2023/04/06 08:48:01;;;;;;;24.48;12.02;;;;;;;;;;5091769;28;20059;-77
2023/04/06 08:50:28;;;;;;;23.65;12.05;;;;;;;;;;5090994;28;20034;-76
2023/04/06 08:52:54;;;;;;;18.77;11.95;;;;;;;;;;5090304;28;20092;-79
2023/04/06 08:55:20;;;;;;;24.00;12.27;;;;;;;;;;5091408;28;20032;-79
2023/04/06 08:57:47;;;;;;;26.02;11.95;;;;;;;;;;5090442;28;20117;-77
2023/04/06 09:00:14;;;;;;;20.35;11.02;;;;;;;;;;5092442;28;20101;-79
2023/04/06 09:02:40;;;;;;;18.63;11.38;;;;;;;;;;5090529;28;20038;-78
2023/04/06 09:05:08;;;;;;;13.73;9.57;;;;;;;;;;5091022;28;20032;-79
2023/04/06 09:07:34;;;;;;;17.38;9.82;;;;;;;;;;5088673;28;20381;-78
2023/04/06 09:10:00;;;;;;;17.95;10.80;;;9.30;99.90;;;;;;5093372;28;20035;-80
2023/04/06 09:12:30;;;;;;;17.52;10.77;;;9.50;99.90;;;;;;5090114;28;20036;-75
2023/04/06 09:14:57;;;;;;;19.30;11.13;;;9.60;99.90;;;;;;5091645;28;20223;-76
2023/04/06 09:17:26;;;;;;;15.93;11.05;;;9.60;99.90;;;;;;5090429;28;20124;-75
2023/04/06 09:19:52;;;;;;;13.70;8.95;;;9.60;99.90;;;;;;5091373;28;20496;-78
2023/04/06 09:22:18;;;;;;;14.07;10.20;;;9.60;99.90;;;;;;5092494;28;20016;-79
2023/04/06 09:24:49;;;;;;;16.90;11.02;;;9.70;99.90;;;;;;5097242;28;20035;-78
2023/04/06 09:27:15;;;;;;;16.95;10.45;;;9.80;99.90;;;;;;5113051;28;20541;-81
2023/04/06 09:29:42;;;;;;;15.85;9.85;;;9.80;99.90;;;;;;5112129;28;20055;-79
2023/04/06 09:32:15;;;;;;;14.63;9.77;;;9.90;99.90;;;;;;5112999;28;20027;-80
2023/04/06 09:34:40;;;;;;;25.05;10.70;;;10.00;99.90;;;;;;5112434;28;20043;-78
2023/04/06 09:37:14;;;;;;;15.77;9.63;;;10.20;99.90;;;;;;5113030;28;20019;-79
2023/04/06 09:39:40;;;;;;;20.08;10.70;;;10.20;99.80;;;;;;5111627;28;20027;-79
2023/04/06 09:42:05;;;;;;;15.25;9.27;;;10.20;99.30;;;;;;5097831;28;20527;-80
2023/04/06 09:44:34;;;;;;;12.73;9.07;;;;;;;;;;5103242;28;20028;-79
2023/04/06 09:47:01;;;;;;;13.63;9.77;;;;;;;;;;5112429;28;20015;-79
2023/04/06 09:49:31;;;;;;;15.20;9.70;;;;;;;;;;5111756;28;20047;-79
2023/04/06 09:52:01;;;;;;;13.45;9.68;;;;;;;;;;5112782;28;20027;-81
2023/04/06 09:54:29;;;;;;;18.35;9.05;;;;;;;;;;5111794;28;20023;-79
2023/04/06 09:57:14;;;;;;;15.85;8.45;;;;;;;;;;5112314;28;20027;-78
2023/04/06 09:59:40;;;;;;;13.25;8.48;;;;;;;;;;5089814;28;20063;-80
2023/04/06 10:02:09;;;;;;;14.23;8.95;;;;;;;;;;5099544;28;20453;-79
2023/04/06 10:04:35;;;;;;;22.70;8.18;;;;;;;;;;5091225;28;20024;-79
2023/04/06 10:07:02;;;;;;;14.00;8.57;;;;;;;;;;5090695;28;20508;-80
2023/04/06 10:09:35;;;;;;;14.30;9.55;;;;;;;;;;5091608;28;20431;-79
2023/04/06 10:12:02;;;;;;;16.73;8.65;;;;;;;;;;5090288;28;20078;-79
2023/04/06 10:14:28;;;;;;;14.00;8.45;;;;;;;;;;5091314;28;20028;-78
2023/04/06 10:16:54;;;;;;;10.35;8.57;;;;;;;;;;5094389;28;20512;-78
2023/04/06 10:19:28;;;;;;;10.98;7.75;;;;;;;;;;5089862;28;20036;-79
2023/04/06 10:21:56;;;;;;;14.20;8.73;;;;;;;;;;5089874;28;20530;-76
2023/04/06 10:24:22;;;;;;;12.23;7.63;;;;;;;;;;5090788;28;20032;-74
2023/04/06 10:27:04;;;;;;;14.18;8.45;;;;;;;;;;5088468;28;20168;-77
2023/04/06 10:29:43;;;;;;;11.90;7.57;;;;;;;;;;5089495;28;20028;-77
2023/04/06 10:32:08;;;;;;;12.15;7.63;;;12.00;95.10;;;;;;5090805;28;20020;-80
2023/04/06 10:34:35;;;;;;;11.63;7.93;;;12.00;91.00;;;;;;5098404;28;20123;-80
2023/04/06 10:37:14;;;;;;;10.55;7.43;;;12.00;91.10;;;;;;5100677;28;20481;-80
2023/04/06 10:39:54;;;;;;;14.60;7.25;;;12.10;90.80;;;;;;5091464;28;20034;-80
2023/04/06 10:42:24;;;;;;;10.27;6.72;;;12.10;91.00;;;;;;5092410;28;20028;-79
2023/04/06 10:44:50;;;;;;;;;;;;;;;;;;5093141;28;20032;-79
2023/04/06 10:47:19;;;;;;;13.60;7.28;;;;;;;;;;5092405;28;19904;-79
2023/04/06 10:49:45;;;;;;;11.27;7.53;;;12.40;95.00;;;;;;5091446;28;20660;-79
2023/04/06 10:52:11;;;;;;;9.40;7.10;;;12.60;64.00;;;;;;5092726;28;20060;-77
2023/04/06 10:54:42;;;;;;;10.75;7.30;;;12.80;64.10;;;;;;5090589;28;20079;-79
2023/04/06 10:57:08;;;;;;;11.32;7.53;;;13.00;63.00;;;;;;5106609;28;20441;-81
2023/04/06 10:59:34;;;;;;;11.55;7.32;;;13.10;64.50;;;;;;5111292;28;20059;-83
2023/04/06 11:01:59;;;;;;;9.70;7.20;;;13.20;66.00;;;;;;5115681;28;20418;-82
2023/04/06 11:04:25;;;;;;;10.35;7.40;;;13.30;63.50;;;;;;5112167;28;20099;-74
2023/04/06 11:06:51;;;;;;;11.32;7.10;;;13.50;62.70;;;;;;5111663;28;20065;-81
2023/04/06 11:09:28;;;;;;;10.25;6.30;;;13.70;62.10;;;;;;5111547;28;20028;-80
2023/04/06 11:11:55;;;;;;;10.70;7.30;;;13.80;61.00;;;;;;5111613;28;20375;-79
2023/04/06 11:14:20;;;;;;;9.10;7.03;;;13.90;59.80;;;;;;5107219;28;20089;-79
2023/04/06 11:16:50;;;;;;;11.65;6.55;;;13.80;60.50;;;;;;5111370;28;20027;-79
2023/04/06 11:19:16;;;;;;;9.70;6.72;;;13.80;60.20;;;;;;5112692;28;20384;-79
2023/04/06 11:21:47;;;;;;;8.52;6.15;;;14.00;59.80;;;;;;5111644;28;20083;-80
2023/04/06 11:24:15;;;;;;;9.43;7.32;;;14.20;59.50;;;;;;5097251;28;20027;-79
2023/04/06 11:26:48;;;;;;;8.57;6.45;;;14.50;59.40;;;;;;5090482;28;20032;-79
2023/04/06 11:29:16;;;;;;;8.60;6.25;;;14.70;58.00;;;;;;5091367;28;20048;-79
2023/04/06 11:31:47;;;;;;;9.88;7.15;;;14.80;57.80;;;;;;5090741;28;20032;-79
2023/04/06 11:34:20;;;;;;;12.18;7.32;;;15.00;58.50;;;;;;5091754;28;20112;-79
2023/04/06 11:36:48;;;;;;;9.73;6.53;;;15.10;57.40;;;;;;5089736;28;20127;-78
2023/04/06 11:39:22;;;;;;;8.55;6.60;;;15.30;57.60;;;;;;5093252;28;20443;-79
2023/04/06 11:41:53;;;;;;;8.35;6.85;;;15.70;57.10;;;;;;5109979;28;20521;-79
2023/04/06 11:44:49;;;;;;;8.85;7.18;;;16.00;55.70;;;;;;5110925;28;20016;-78
2023/04/06 11:47:15;;;;;;;12.48;7.40;;;16.50;54.40;;;;;;5090622;28;20043;-79
2023/04/06 11:49:44;;;;;;;10.77;7.47;;;16.80;55.40;;;;;;5109825;28;20043;-79
2023/04/06 11:52:21;;;;;;;13.55;7.47;;;17.00;77.20;;;;;;5113005;28;20051;-79
2023/04/06 11:54:48;;;;;;;10.35;6.80;;;17.00;76.70;;;;;;5112918;28;20532;-80
2023/04/06 11:57:16;;;;;;;9.05;6.93;;;17.10;76.10;;;;;;5109957;28;20063;-79
2023/04/06 11:59:43;;;;;;;9.88;6.40;;;17.10;75.80;;;;;;5110599;28;20038;-79
2023/04/06 12:02:09;;;;;;;8.27;6.50;;;17.10;75.90;;;;;;5110786;28;20027;-79
2023/04/06 12:04:35;;;;;;;8.20;6.13;;;17.00;76.30;;;;;;5114270;28;20078;-78
2023/04/06 12:07:00;;;;;;;9.23;6.60;;;16.80;76.80;;;;;;5115359;28;20047;-79
2023/04/06 12:09:26;;;;;;;10.50;6.60;;;16.80;75.40;;;;;;5114417;28;20028;-76
2023/04/06 12:11:52;;;;;;;9.73;6.50;;;16.70;75.60;;;;;;5114758;28;20111;-78
2023/04/06 12:14:17;;;;;;;5.78;5.15;;;16.70;75.40;;;;;;5102214;28;20024;-79
2023/04/06 12:16:43;;;;;;;8.57;6.60;;;16.60;75.40;;;;;;5093162;28;20032;-78
2023/04/06 12:19:09;;;;;;;10.40;6.45;;;16.80;75.40;;;;;;5094405;28;20028;-75
2023/04/06 12:21:38;;;;;;;9.13;6.30;;;17.00;74.20;;;;;;5093338;28;20111;-80
2023/04/06 12:24:04;;;;;;;10.80;6.57;;;17.10;74.50;;;;;;5094171;28;20027;-79
2023/04/06 12:26:30;;;;;;;8.75;5.80;;;17.20;75.10;;;;;;5092616;28;20412;-79
2023/04/06 12:28:56;;;;;;;8.45;6.18;;;17.20;74.30;;;;;;5094361;28;20023;-78
2023/04/06 12:31:22;;;;;;;7.97;6.28;;;17.10;74.10;;;;;;5093729;28;20020;-75
2023/04/06 12:33:51;;;;;;;7.22;6.25;;;17.10;74.70;;;;;;5094027;28;20028;-79
2023/04/06 12:36:18;;;;;;;7.13;5.93;;;17.10;74.90;;;;;;5093171;28;20032;-78
2023/04/06 12:38:46;;;;;;;8.40;5.85;;;17.00;73.80;;;;;;5092906;28;20107;-80
2023/04/06 12:41:13;;;;;;;10.50;5.40;;;;;;;;;;5093327;28;20078;-81
2023/04/06 12:43:42;;;;;;;7.43;5.53;;;17.90;78.80;;;;;;5093213;28;20020;-79
2023/04/06 12:46:08;;;;;;;10.20;6.60;;;18.20;48.50;;;;;;5093795;28;20039;-78
2023/04/06 12:48:34;;;;;;;12.07;6.70;;;18.00;47.70;;;;;;5086634;28;20052;-79
2023/04/06 12:51:05;;;;;;;9.07;5.88;;;18.00;48.30;;;;;;5087084;28;20047;-78
2023/04/06 12:53:31;;;;;;;10.10;6.93;;;18.10;48.00;;;;;;5093184;28;20492;-79
2023/04/06 12:55:58;;;;;;;9.15;6.32;;;18.00;48.00;;;;;;5093229;28;20024;-80
2023/04/06 12:58:26;;;;;;;8.52;5.88;;;17.90;47.40;;;;;;5093190;28;20062;-75